sensor_id;sensor_type;location;lat;lon;timestamp;P1;durP1;ratioP1;P2;durP2;ratioP2
45041;SDS011;30779;52.096;4.410;2023-02-24T00:00:14;8.27;;;1.88;;
45041;SDS011;30779;52.096;4.410;2023-02-24T00:03:36;8.52;;;2.00;;
45041;SDS011;30779;52.096;4.410;2023-02-24T00:06:38;6.30;;;2.53;;
45041;SDS011;30779;52.096;4.410;2023-02-24T00:09:40;9.45;;;2.65;;
45041;SDS011;30779;52.096;4.410;2023-02-24T00:12:46;6.43;;;1.50;;
45041;SDS011;30779;52.096;4.410;2023-02-24T00:15:58;10.48;;;1.77;;
45041;SDS011;30779;52.096;4.410;2023-02-24T00:19:00;6.38;;;1.40;;
45041;SDS011;30779;52.096;4.410;2023-02-24T00:22:01;6.55;;;2.38;;
45041;SDS011;30779;52.096;4.410;2023-02-24T00:25:03;5.50;;;1.65;;
45041;SDS011;30779;52.096;4.410;2023-02-24T00:28:04;5.00;;;2.05;;
45041;SDS011;30779;52.096;4.410;2023-02-24T00:31:06;6.30;;;1.60;;
45041;SDS011;30779;52.096;4.410;2023-02-24T00:34:09;11.57;;;2.53;;
45041;SDS011;30779;52.096;4.410;2023-02-24T00:37:14;5.35;;;1.65;;
45041;SDS011;30779;52.096;4.410;2023-02-24T00:40:15;10.63;;;2.50;;
45041;SDS011;30779;52.096;4.410;2023-02-24T00:43:20;7.07;;;1.27;;
45041;SDS011;30779;52.096;4.410;2023-02-24T00:46:22;10.27;;;1.50;;
45041;SDS011;30779;52.096;4.410;2023-02-24T00:49:24;5.53;;;1.33;;
45041;SDS011;30779;52.096;4.410;2023-02-24T00:52:25;8.20;;;1.48;;
45041;SDS011;30779;52.096;4.410;2023-02-24T00:55:26;6.88;;;1.73;;
45041;SDS011;30779;52.096;4.410;2023-02-24T00:58:35;10.95;;;1.55;;
45041;SDS011;30779;52.096;4.410;2023-02-24T01:01:36;9.95;;;2.97;;
45041;SDS011;30779;52.096;4.410;2023-02-24T01:04:37;6.97;;;1.90;;
45041;SDS011;30779;52.096;4.410;2023-02-24T01:07:38;8.25;;;1.40;;
45041;SDS011;30779;52.096;4.410;2023-02-24T01:10:39;5.60;;;1.17;;
45041;SDS011;30779;52.096;4.410;2023-02-24T01:14:04;6.75;;;1.58;;
45041;SDS011;30779;52.096;4.410;2023-02-24T01:17:06;8.15;;;1.92;;
45041;SDS011;30779;52.096;4.410;2023-02-24T01:20:08;3.83;;;1.55;;
45041;SDS011;30779;52.096;4.410;2023-02-24T01:23:18;6.50;;;1.67;;
45041;SDS011;30779;52.096;4.410;2023-02-24T01:26:19;10.27;;;1.85;;
45041;SDS011;30779;52.096;4.410;2023-02-24T01:29:21;5.60;;;2.05;;
45041;SDS011;30779;52.096;4.410;2023-02-24T01:32:22;3.85;;;1.50;;
45041;SDS011;30779;52.096;4.410;2023-02-24T01:35:26;5.72;;;1.63;;
45041;SDS011;30779;52.096;4.410;2023-02-24T01:38:27;3.88;;;1.67;;
45041;SDS011;30779;52.096;4.410;2023-02-24T01:41:28;5.13;;;1.63;;
45041;SDS011;30779;52.096;4.410;2023-02-24T01:47:31;5.85;;;2.75;;
45041;SDS011;30779;52.096;4.410;2023-02-24T01:50:33;5.63;;;1.40;;
45041;SDS011;30779;52.096;4.410;2023-02-24T01:53:34;7.28;;;1.65;;
45041;SDS011;30779;52.096;4.410;2023-02-24T01:56:36;6.05;;;1.77;;
45041;SDS011;30779;52.096;4.410;2023-02-24T01:59:38;10.05;;;1.33;;
45041;SDS011;30779;52.096;4.410;2023-02-24T02:02:40;3.47;;;1.20;;
45041;SDS011;30779;52.096;4.410;2023-02-24T02:05:43;7.03;;;1.60;;
45041;SDS011;30779;52.096;4.410;2023-02-24T02:11:48;9.23;;;1.60;;
45041;SDS011;30779;52.096;4.410;2023-02-24T02:14:50;6.32;;;1.35;;
45041;SDS011;30779;52.096;4.410;2023-02-24T02:18:04;5.22;;;1.27;;
45041;SDS011;30779;52.096;4.410;2023-02-24T02:21:15;4.60;;;1.50;;
45041;SDS011;30779;52.096;4.410;2023-02-24T02:37:32;4.15;;;1.88;;
45041;SDS011;30779;52.096;4.410;2023-02-24T02:43:37;7.60;;;1.58;;
45041;SDS011;30779;52.096;4.410;2023-02-24T02:46:45;3.40;;;1.33;;
45041;SDS011;30779;52.096;4.410;2023-02-24T02:49:48;7.43;;;1.58;;
45041;SDS011;30779;52.096;4.410;2023-02-24T02:52:56;3.88;;;2.00;;
45041;SDS011;30779;52.096;4.410;2023-02-24T02:59:08;5.28;;;1.20;;
45041;SDS011;30779;52.096;4.410;2023-02-24T03:02:11;5.80;;;1.52;;
45041;SDS011;30779;52.096;4.410;2023-02-24T03:05:14;5.13;;;1.42;;
45041;SDS011;30779;52.096;4.410;2023-02-24T03:11:17;2.63;;;1.45;;
45041;SDS011;30779;52.096;4.410;2023-02-24T03:14:22;4.32;;;1.17;;
45041;SDS011;30779;52.096;4.410;2023-02-24T03:17:26;5.40;;;1.10;;
45041;SDS011;30779;52.096;4.410;2023-02-24T03:20:34;7.55;;;1.10;;
45041;SDS011;30779;52.096;4.410;2023-02-24T03:23:53;6.90;;;1.20;;
45041;SDS011;30779;52.096;4.410;2023-02-24T03:27:01;3.40;;;1.10;;
45041;SDS011;30779;52.096;4.410;2023-02-24T03:30:08;4.72;;;0.93;;
45041;SDS011;30779;52.096;4.410;2023-02-24T03:36:16;2.50;;;1.25;;
45041;SDS011;30779;52.096;4.410;2023-02-24T03:39:17;11.40;;;1.70;;
45041;SDS011;30779;52.096;4.410;2023-02-24T03:42:18;4.40;;;1.60;;
45041;SDS011;30779;52.096;4.410;2023-02-24T03:45:20;3.30;;;1.25;;
45041;SDS011;30779;52.096;4.410;2023-02-24T03:48:22;6.95;;;1.40;;
45041;SDS011;30779;52.096;4.410;2023-02-24T03:51:24;6.68;;;1.13;;
45041;SDS011;30779;52.096;4.410;2023-02-24T04:01:09;5.60;;;1.17;;
45041;SDS011;30779;52.096;4.410;2023-02-24T04:04:35;7.65;;;1.80;;
45041;SDS011;30779;52.096;4.410;2023-02-24T04:07:44;6.43;;;1.75;;
45041;SDS011;30779;52.096;4.410;2023-02-24T04:10:55;4.65;;;1.55;;
45041;SDS011;30779;52.096;4.410;2023-02-24T04:14:02;6.93;;;2.97;;
45041;SDS011;30779;52.096;4.410;2023-02-24T04:17:07;6.45;;;1.50;;
45041;SDS011;30779;52.096;4.410;2023-02-24T04:20:12;5.90;;;1.45;;
45041;SDS011;30779;52.096;4.410;2023-02-24T04:23:20;4.15;;;1.80;;
45041;SDS011;30779;52.096;4.410;2023-02-24T04:26:22;6.10;;;1.60;;
45041;SDS011;30779;52.096;4.410;2023-02-24T04:29:25;5.93;;;1.88;;
45041;SDS011;30779;52.096;4.410;2023-02-24T04:32:28;6.68;;;2.50;;
45041;SDS011;30779;52.096;4.410;2023-02-24T04:35:29;4.60;;;2.20;;
45041;SDS011;30779;52.096;4.410;2023-02-24T04:38:33;5.63;;;1.73;;
45041;SDS011;30779;52.096;4.410;2023-02-24T04:41:34;7.20;;;2.10;;
45041;SDS011;30779;52.096;4.410;2023-02-24T04:44:35;12.20;;;3.10;;
45041;SDS011;30779;52.096;4.410;2023-02-24T04:47:37;6.65;;;2.20;;
45041;SDS011;30779;52.096;4.410;2023-02-24T04:50:41;9.48;;;2.60;;
45041;SDS011;30779;52.096;4.410;2023-02-24T04:53:43;10.88;;;2.90;;
45041;SDS011;30779;52.096;4.410;2023-02-24T04:56:48;9.18;;;2.85;;
45041;SDS011;30779;52.096;4.410;2023-02-24T04:59:52;10.68;;;2.85;;
45041;SDS011;30779;52.096;4.410;2023-02-24T05:02:55;10.23;;;2.38;;
45041;SDS011;30779;52.096;4.410;2023-02-24T05:05:57;8.50;;;3.20;;
45041;SDS011;30779;52.096;4.410;2023-02-24T05:09:01;12.52;;;3.17;;
45041;SDS011;30779;52.096;4.410;2023-02-24T05:12:13;11.23;;;2.97;;
45041;SDS011;30779;52.096;4.410;2023-02-24T05:15:14;6.70;;;2.53;;
45041;SDS011;30779;52.096;4.410;2023-02-24T05:18:15;4.43;;;2.13;;
45041;SDS011;30779;52.096;4.410;2023-02-24T05:21:16;10.57;;;3.10;;
45041;SDS011;30779;52.096;4.410;2023-02-24T05:24:36;10.70;;;2.65;;
45041;SDS011;30779;52.096;4.410;2023-02-24T05:27:37;6.97;;;2.38;;
45041;SDS011;30779;52.096;4.410;2023-02-24T05:30:38;8.48;;;2.10;;
45041;SDS011;30779;52.096;4.410;2023-02-24T05:33:40;8.52;;;2.10;;
45041;SDS011;30779;52.096;4.410;2023-02-24T05:36:42;11.93;;;2.43;;
45041;SDS011;30779;52.096;4.410;2023-02-24T05:39:44;9.50;;;2.10;;
45041;SDS011;30779;52.096;4.410;2023-02-24T05:42:45;8.93;;;2.38;;
45041;SDS011;30779;52.096;4.410;2023-02-24T05:45:46;6.65;;;2.70;;
45041;SDS011;30779;52.096;4.410;2023-02-24T05:48:51;10.40;;;2.90;;
45041;SDS011;30779;52.096;4.410;2023-02-24T05:51:56;5.35;;;1.80;;
45041;SDS011;30779;52.096;4.410;2023-02-24T05:58:05;6.00;;;2.00;;
45041;SDS011;30779;52.096;4.410;2023-02-24T06:01:12;7.50;;;2.22;;
45041;SDS011;30779;52.096;4.410;2023-02-24T06:04:18;6.97;;;2.10;;
45041;SDS011;30779;52.096;4.410;2023-02-24T06:07:38;6.10;;;2.10;;
45041;SDS011;30779;52.096;4.410;2023-02-24T06:10:39;8.52;;;2.63;;
45041;SDS011;30779;52.096;4.410;2023-02-24T06:13:40;4.03;;;1.67;;
45041;SDS011;30779;52.096;4.410;2023-02-24T06:16:46;3.60;;;1.30;;
45041;SDS011;30779;52.096;4.410;2023-02-24T06:19:48;5.80;;;1.50;;
45041;SDS011;30779;52.096;4.410;2023-02-24T06:22:49;4.70;;;1.75;;
45041;SDS011;30779;52.096;4.410;2023-02-24T06:25:53;11.00;;;1.73;;
45041;SDS011;30779;52.096;4.410;2023-02-24T06:28:56;10.13;;;2.67;;
45041;SDS011;30779;52.096;4.410;2023-02-24T06:31:57;13.20;;;3.08;;
45041;SDS011;30779;52.096;4.410;2023-02-24T06:34:58;11.43;;;3.15;;
45041;SDS011;30779;52.096;4.410;2023-02-24T06:38:00;12.40;;;2.50;;
45041;SDS011;30779;52.096;4.410;2023-02-24T06:41:02;6.32;;;1.65;;
45041;SDS011;30779;52.096;4.410;2023-02-24T06:44:09;8.70;;;2.53;;
45041;SDS011;30779;52.096;4.410;2023-02-24T06:47:11;9.88;;;2.33;;
45041;SDS011;30779;52.096;4.410;2023-02-24T06:50:13;7.43;;;2.10;;
45041;SDS011;30779;52.096;4.410;2023-02-24T06:53:14;9.27;;;2.50;;
45041;SDS011;30779;52.096;4.410;2023-02-24T06:56:16;9.02;;;2.95;;
45041;SDS011;30779;52.096;4.410;2023-02-24T06:59:18;8.60;;;1.63;;
45041;SDS011;30779;52.096;4.410;2023-02-24T07:02:27;26.80;;;3.42;;
45041;SDS011;30779;52.096;4.410;2023-02-24T07:05:38;6.80;;;2.10;;
45041;SDS011;30779;52.096;4.410;2023-02-24T07:08:39;8.80;;;2.42;;
45041;SDS011;30779;52.096;4.410;2023-02-24T07:11:43;7.10;;;1.95;;
45041;SDS011;30779;52.096;4.410;2023-02-24T07:14:51;17.33;;;3.65;;
45041;SDS011;30779;52.096;4.410;2023-02-24T07:17:52;6.45;;;2.58;;
45041;SDS011;30779;52.096;4.410;2023-02-24T07:20:53;20.02;;;3.17;;
45041;SDS011;30779;52.096;4.410;2023-02-24T07:23:55;10.77;;;2.83;;
45041;SDS011;30779;52.096;4.410;2023-02-24T07:26:57;7.38;;;2.85;;
45041;SDS011;30779;52.096;4.410;2023-02-24T07:29:58;10.60;;;3.10;;
45041;SDS011;30779;52.096;4.410;2023-02-24T07:33:05;11.07;;;3.78;;
45041;SDS011;30779;52.096;4.410;2023-02-24T07:36:07;11.65;;;2.80;;
45041;SDS011;30779;52.096;4.410;2023-02-24T07:39:08;11.88;;;3.30;;
45041;SDS011;30779;52.096;4.410;2023-02-24T07:42:10;9.10;;;2.17;;
45041;SDS011;30779;52.096;4.410;2023-02-24T07:45:12;9.93;;;2.40;;
45041;SDS011;30779;52.096;4.410;2023-02-24T07:48:14;9.15;;;3.15;;
45041;SDS011;30779;52.096;4.410;2023-02-24T07:51:16;11.07;;;3.05;;
45041;SDS011;30779;52.096;4.410;2023-02-24T07:54:19;15.90;;;2.42;;
45041;SDS011;30779;52.096;4.410;2023-02-24T07:57:20;11.38;;;3.35;;
45041;SDS011;30779;52.096;4.410;2023-02-24T08:00:24;12.18;;;2.17;;
45041;SDS011;30779;52.096;4.410;2023-02-24T08:03:27;10.57;;;2.42;;
45041;SDS011;30779;52.096;4.410;2023-02-24T08:06:29;10.25;;;3.35;;
45041;SDS011;30779;52.096;4.410;2023-02-24T08:09:37;8.30;;;2.22;;
45041;SDS011;30779;52.096;4.410;2023-02-24T08:12:43;8.07;;;2.53;;
45041;SDS011;30779;52.096;4.410;2023-02-24T08:15:46;6.97;;;2.80;;
45041;SDS011;30779;52.096;4.410;2023-02-24T08:18:55;12.57;;;3.90;;
45041;SDS011;30779;52.096;4.410;2023-02-24T08:21:57;13.68;;;2.28;;
45041;SDS011;30779;52.096;4.410;2023-02-24T08:25:25;16.15;;;3.00;;
45041;SDS011;30779;52.096;4.410;2023-02-24T08:28:34;24.70;;;5.35;;
45041;SDS011;30779;52.096;4.410;2023-02-24T08:31:35;13.18;;;2.58;;
45041;SDS011;30779;52.096;4.410;2023-02-24T08:34:36;20.77;;;3.58;;
45041;SDS011;30779;52.096;4.410;2023-02-24T08:37:37;15.70;;;3.67;;
45041;SDS011;30779;52.096;4.410;2023-02-24T08:40:40;11.43;;;2.75;;
45041;SDS011;30779;52.096;4.410;2023-02-24T08:43:50;8.52;;;2.22;;
45041;SDS011;30779;52.096;4.410;2023-02-24T08:46:52;8.07;;;2.72;;
45041;SDS011;30779;52.096;4.410;2023-02-24T08:49:53;8.27;;;2.33;;
45041;SDS011;30779;52.096;4.410;2023-02-24T08:52:55;8.73;;;2.67;;
45041;SDS011;30779;52.096;4.410;2023-02-24T08:56:05;11.85;;;2.22;;
45041;SDS011;30779;52.096;4.410;2023-02-24T08:59:11;12.32;;;3.20;;
45041;SDS011;30779;52.096;4.410;2023-02-24T09:02:36;10.32;;;2.70;;
45041;SDS011;30779;52.096;4.410;2023-02-24T09:05:41;10.35;;;3.20;;
45041;SDS011;30779;52.096;4.410;2023-02-24T09:08:43;9.30;;;2.40;;
45041;SDS011;30779;52.096;4.410;2023-02-24T09:11:46;10.40;;;3.05;;
45041;SDS011;30779;52.096;4.410;2023-02-24T09:14:52;7.32;;;2.70;;
45041;SDS011;30779;52.096;4.410;2023-02-24T09:17:56;5.30;;;2.60;;
45041;SDS011;30779;52.096;4.410;2023-02-24T09:21:07;10.10;;;4.13;;
45041;SDS011;30779;52.096;4.410;2023-02-24T09:24:27;13.05;;;4.15;;
45041;SDS011;30779;52.096;4.410;2023-02-24T09:27:28;15.07;;;3.60;;
45041;SDS011;30779;52.096;4.410;2023-02-24T09:30:29;10.90;;;3.88;;
45041;SDS011;30779;52.096;4.410;2023-02-24T09:33:36;11.02;;;3.92;;
45041;SDS011;30779;52.096;4.410;2023-02-24T09:36:38;15.85;;;5.75;;
45041;SDS011;30779;52.096;4.410;2023-02-24T09:39:44;11.45;;;5.05;;
45041;SDS011;30779;52.096;4.410;2023-02-24T09:42:57;18.00;;;6.87;;
45041;SDS011;30779;52.096;4.410;2023-02-24T09:45:59;19.63;;;7.13;;
45041;SDS011;30779;52.096;4.410;2023-02-24T09:49:14;22.05;;;8.07;;
45041;SDS011;30779;52.096;4.410;2023-02-24T09:52:17;18.85;;;8.05;;
45041;SDS011;30779;52.096;4.410;2023-02-24T10:01:51;14.38;;;8.57;;
45041;SDS011;30779;52.096;4.410;2023-02-24T10:05:07;23.83;;;9.52;;
45041;SDS011;30779;52.096;4.410;2023-02-24T10:08:15;29.08;;;11.63;;
45041;SDS011;30779;52.096;4.410;2023-02-24T10:11:24;25.10;;;11.18;;
45041;SDS011;30779;52.096;4.410;2023-02-24T10:14:35;25.63;;;11.63;;
45041;SDS011;30779;52.096;4.410;2023-02-24T10:17:37;19.25;;;11.27;;
45041;SDS011;30779;52.096;4.410;2023-02-24T10:20:42;27.70;;;12.02;;
45041;SDS011;30779;52.096;4.410;2023-02-24T10:27:12;23.10;;;12.00;;
45041;SDS011;30779;52.096;4.410;2023-02-24T10:33:28;18.25;;;11.02;;
45041;SDS011;30779;52.096;4.410;2023-02-24T10:36:36;21.98;;;12.45;;
45041;SDS011;30779;52.096;4.410;2023-02-24T10:39:38;19.92;;;11.30;;
45041;SDS011;30779;52.096;4.410;2023-02-24T10:42:42;20.13;;;11.70;;
45041;SDS011;30779;52.096;4.410;2023-02-24T10:45:46;18.92;;;11.43;;
45041;SDS011;30779;52.096;4.410;2023-02-24T10:48:52;17.52;;;10.52;;
45041;SDS011;30779;52.096;4.410;2023-02-24T10:51:59;17.85;;;12.13;;
45041;SDS011;30779;52.096;4.410;2023-02-24T10:55:18;23.13;;;12.63;;
45041;SDS011;30779;52.096;4.410;2023-02-24T10:58:31;19.42;;;11.10;;
45041;SDS011;30779;52.096;4.410;2023-02-24T11:05:33;22.30;;;11.70;;
45041;SDS011;30779;52.096;4.410;2023-02-24T11:08:37;20.55;;;11.45;;
45041;SDS011;30779;52.096;4.410;2023-02-24T11:11:43;20.90;;;11.38;;
45041;SDS011;30779;52.096;4.410;2023-02-24T11:15:04;21.48;;;10.90;;
45041;SDS011;30779;52.096;4.410;2023-02-24T11:18:25;13.50;;;7.80;;
45041;SDS011;30779;52.096;4.410;2023-02-24T11:21:27;11.70;;;7.40;;
45041;SDS011;30779;52.096;4.410;2023-02-24T11:24:28;17.17;;;9.40;;
45041;SDS011;30779;52.096;4.410;2023-02-24T11:27:29;24.23;;;10.63;;
45041;SDS011;30779;52.096;4.410;2023-02-24T11:30:51;22.30;;;10.85;;
45041;SDS011;30779;52.096;4.410;2023-02-24T11:40:17;21.63;;;9.07;;
45041;SDS011;30779;52.096;4.410;2023-02-24T11:43:22;22.98;;;9.18;;
45041;SDS011;30779;52.096;4.410;2023-02-24T11:46:33;19.88;;;8.70;;
45041;SDS011;30779;52.096;4.410;2023-02-24T11:49:39;23.23;;;7.82;;
45041;SDS011;30779;52.096;4.410;2023-02-24T11:52:42;20.23;;;6.75;;
45041;SDS011;30779;52.096;4.410;2023-02-24T11:55:47;20.95;;;6.05;;
45041;SDS011;30779;52.096;4.410;2023-02-24T12:05:16;27.27;;;6.25;;
45041;SDS011;30779;52.096;4.410;2023-02-24T12:11:34;16.63;;;5.18;;
45041;SDS011;30779;52.096;4.410;2023-02-24T12:14:49;23.60;;;5.47;;
45041;SDS011;30779;52.096;4.410;2023-02-24T12:20:59;27.88;;;7.43;;
45041;SDS011;30779;52.096;4.410;2023-02-24T12:27:12;16.25;;;4.63;;
45041;SDS011;30779;52.096;4.410;2023-02-24T12:30:27;18.05;;;5.10;;
45041;SDS011;30779;52.096;4.410;2023-02-24T12:33:48;20.88;;;3.92;;
45041;SDS011;30779;52.096;4.410;2023-02-24T12:40:14;28.27;;;5.57;;
45041;SDS011;30779;52.096;4.410;2023-02-24T12:43:34;18.42;;;4.28;;
45041;SDS011;30779;52.096;4.410;2023-02-24T12:46:37;17.70;;;3.78;;
45041;SDS011;30779;52.096;4.410;2023-02-24T12:49:43;21.88;;;5.78;;
45041;SDS011;30779;52.096;4.410;2023-02-24T12:58:55;18.17;;;4.80;;
45041;SDS011;30779;52.096;4.410;2023-02-24T13:02:05;21.15;;;4.40;;
45041;SDS011;30779;52.096;4.410;2023-02-24T13:14:39;20.85;;;5.20;;
45041;SDS011;30779;52.096;4.410;2023-02-24T13:17:45;21.42;;;4.72;;
45041;SDS011;30779;52.096;4.410;2023-02-24T13:20:47;20.40;;;5.60;;
45041;SDS011;30779;52.096;4.410;2023-02-24T13:23:59;30.05;;;7.90;;
45041;SDS011;30779;52.096;4.410;2023-02-24T13:36:22;21.25;;;5.57;;
45041;SDS011;30779;52.096;4.410;2023-02-24T13:39:24;19.48;;;4.95;;
45041;SDS011;30779;52.096;4.410;2023-02-24T13:42:31;19.88;;;5.35;;
45041;SDS011;30779;52.096;4.410;2023-02-24T13:45:32;16.23;;;3.70;;
45041;SDS011;30779;52.096;4.410;2023-02-24T13:58:51;17.85;;;3.17;;
45041;SDS011;30779;52.096;4.410;2023-02-24T14:01:59;7.80;;;2.45;;
45041;SDS011;30779;52.096;4.410;2023-02-24T14:05:01;11.60;;;3.17;;
45041;SDS011;30779;52.096;4.410;2023-02-24T14:08:11;12.85;;;3.50;;
45041;SDS011;30779;52.096;4.410;2023-02-24T14:11:14;14.70;;;3.33;;
45041;SDS011;30779;52.096;4.410;2023-02-24T14:14:15;13.05;;;4.10;;
45041;SDS011;30779;52.096;4.410;2023-02-24T14:17:33;13.75;;;2.78;;
45041;SDS011;30779;52.096;4.410;2023-02-24T14:20:35;12.35;;;3.22;;
45041;SDS011;30779;52.096;4.410;2023-02-24T14:23:38;13.23;;;3.47;;
45041;SDS011;30779;52.096;4.410;2023-02-24T14:26:44;16.63;;;4.05;;
45041;SDS011;30779;52.096;4.410;2023-02-24T14:29:45;9.35;;;2.28;;
45041;SDS011;30779;52.096;4.410;2023-02-24T14:32:46;13.43;;;2.92;;
45041;SDS011;30779;52.096;4.410;2023-02-24T14:35:48;8.98;;;2.03;;
45041;SDS011;30779;52.096;4.410;2023-02-24T14:39:00;9.40;;;1.98;;
45041;SDS011;30779;52.096;4.410;2023-02-24T14:45:15;8.45;;;2.00;;
45041;SDS011;30779;52.096;4.410;2023-02-24T14:48:24;8.70;;;2.00;;
45041;SDS011;30779;52.096;4.410;2023-02-24T14:51:27;14.82;;;3.17;;
45041;SDS011;30779;52.096;4.410;2023-02-24T14:57:48;9.45;;;2.22;;
45041;SDS011;30779;52.096;4.410;2023-02-24T15:01:00;14.35;;;2.20;;
45041;SDS011;30779;52.096;4.410;2023-02-24T15:04:47;6.43;;;1.67;;
45041;SDS011;30779;52.096;4.410;2023-02-24T15:07:25;7.55;;;1.30;;
45041;SDS011;30779;52.096;4.410;2023-02-24T15:10:27;8.53;;;1.53;;
45041;SDS011;30779;52.096;4.410;2023-02-24T15:13:37;4.63;;;1.27;;
45041;SDS011;30779;52.096;4.410;2023-02-24T15:16:40;7.35;;;2.40;;
45041;SDS011;30779;52.096;4.410;2023-02-24T15:22:49;10.40;;;1.70;;
45041;SDS011;30779;52.096;4.410;2023-02-24T15:25:50;7.85;;;2.45;;
45041;SDS011;30779;52.096;4.410;2023-02-24T15:29:02;3.80;;;1.30;;
45041;SDS011;30779;52.096;4.410;2023-02-24T15:32:03;5.72;;;1.30;;
45041;SDS011;30779;52.096;4.410;2023-02-24T15:35:19;6.43;;;2.15;;
45041;SDS011;30779;52.096;4.410;2023-02-24T15:38:28;8.45;;;1.65;;
45041;SDS011;30779;52.096;4.410;2023-02-24T15:41:37;11.07;;;1.90;;
45041;SDS011;30779;52.096;4.410;2023-02-24T15:44:49;9.63;;;1.73;;
45041;SDS011;30779;52.096;4.410;2023-02-24T15:47:51;7.55;;;2.05;;
45041;SDS011;30779;52.096;4.410;2023-02-24T15:50:56;6.57;;;1.45;;
45041;SDS011;30779;52.096;4.410;2023-02-24T15:54:02;6.70;;;1.27;;
45041;SDS011;30779;52.096;4.410;2023-02-24T15:57:04;8.85;;;2.45;;
45041;SDS011;30779;52.096;4.410;2023-02-24T16:00:06;5.40;;;1.75;;
45041;SDS011;30779;52.096;4.410;2023-02-24T16:03:12;4.55;;;1.30;;
45041;SDS011;30779;52.096;4.410;2023-02-24T16:06:16;8.43;;;1.83;;
45041;SDS011;30779;52.096;4.410;2023-02-24T16:09:17;7.97;;;1.88;;
45041;SDS011;30779;52.096;4.410;2023-02-24T16:12:23;10.57;;;3.13;;
45041;SDS011;30779;52.096;4.410;2023-02-24T16:15:32;9.50;;;1.80;;
45041;SDS011;30779;52.096;4.410;2023-02-24T16:18:34;7.05;;;2.15;;
45041;SDS011;30779;52.096;4.410;2023-02-24T16:21:35;5.18;;;1.70;;
45041;SDS011;30779;52.096;4.410;2023-02-24T16:24:36;8.75;;;2.58;;
45041;SDS011;30779;52.096;4.410;2023-02-24T16:27:37;10.95;;;2.58;;
45041;SDS011;30779;52.096;4.410;2023-02-24T16:30:38;11.05;;;2.28;;
45041;SDS011;30779;52.096;4.410;2023-02-24T16:33:39;5.30;;;1.30;;
45041;SDS011;30779;52.096;4.410;2023-02-24T16:36:41;5.90;;;2.35;;
45041;SDS011;30779;52.096;4.410;2023-02-24T16:39:43;6.40;;;1.38;;
45041;SDS011;30779;52.096;4.410;2023-02-24T16:42:44;9.07;;;1.45;;
45041;SDS011;30779;52.096;4.410;2023-02-24T16:45:45;11.23;;;2.85;;
45041;SDS011;30779;52.096;4.410;2023-02-24T16:48:47;13.15;;;2.15;;
45041;SDS011;30779;52.096;4.410;2023-02-24T16:51:48;12.80;;;2.65;;
45041;SDS011;30779;52.096;4.410;2023-02-24T16:54:49;8.95;;;2.78;;
45041;SDS011;30779;52.096;4.410;2023-02-24T16:57:50;13.63;;;2.75;;
45041;SDS011;30779;52.096;4.410;2023-02-24T17:00:52;11.52;;;3.22;;
45041;SDS011;30779;52.096;4.410;2023-02-24T17:03:55;15.30;;;4.95;;
45041;SDS011;30779;52.096;4.410;2023-02-24T17:06:56;16.13;;;3.58;;
45041;SDS011;30779;52.096;4.410;2023-02-24T17:09:57;10.68;;;2.78;;
45041;SDS011;30779;52.096;4.410;2023-02-24T17:12:58;9.65;;;2.88;;
45041;SDS011;30779;52.096;4.410;2023-02-24T17:15:59;9.05;;;2.80;;
45041;SDS011;30779;52.096;4.410;2023-02-24T17:19:00;14.73;;;3.03;;
45041;SDS011;30779;52.096;4.410;2023-02-24T17:22:01;7.45;;;2.22;;
45041;SDS011;30779;52.096;4.410;2023-02-24T17:25:03;13.52;;;2.75;;
45041;SDS011;30779;52.096;4.410;2023-02-24T17:28:06;10.57;;;3.05;;
45041;SDS011;30779;52.096;4.410;2023-02-24T17:31:07;11.38;;;2.30;;
45041;SDS011;30779;52.096;4.410;2023-02-24T17:34:08;12.50;;;2.78;;
45041;SDS011;30779;52.096;4.410;2023-02-24T17:37:09;9.57;;;2.30;;
45041;SDS011;30779;52.096;4.410;2023-02-24T17:40:10;10.10;;;2.58;;
45041;SDS011;30779;52.096;4.410;2023-02-24T17:43:12;8.27;;;1.50;;
45041;SDS011;30779;52.096;4.410;2023-02-24T17:46:13;9.00;;;2.35;;
45041;SDS011;30779;52.096;4.410;2023-02-24T17:49:14;7.40;;;3.03;;
45041;SDS011;30779;52.096;4.410;2023-02-24T17:52:15;9.80;;;3.30;;
45041;SDS011;30779;52.096;4.410;2023-02-24T17:55:16;6.70;;;1.95;;
45041;SDS011;30779;52.096;4.410;2023-02-24T17:58:17;21.73;;;3.17;;
45041;SDS011;30779;52.096;4.410;2023-02-24T18:01:18;16.05;;;3.67;;
45041;SDS011;30779;52.096;4.410;2023-02-24T18:04:19;11.75;;;4.07;;
45041;SDS011;30779;52.096;4.410;2023-02-24T18:07:21;21.70;;;3.05;;
45041;SDS011;30779;52.096;4.410;2023-02-24T18:10:24;10.65;;;3.08;;
45041;SDS011;30779;52.096;4.410;2023-02-24T18:13:27;9.88;;;3.15;;
45041;SDS011;30779;52.096;4.410;2023-02-24T18:16:28;12.85;;;2.42;;
45041;SDS011;30779;52.096;4.410;2023-02-24T18:19:29;7.90;;;2.40;;
45041;SDS011;30779;52.096;4.410;2023-02-24T18:22:30;6.88;;;2.70;;
45041;SDS011;30779;52.096;4.410;2023-02-24T18:25:32;8.10;;;2.78;;
45041;SDS011;30779;52.096;4.410;2023-02-24T18:28:33;11.95;;;2.45;;
45041;SDS011;30779;52.096;4.410;2023-02-24T18:31:34;13.05;;;3.90;;
45041;SDS011;30779;52.096;4.410;2023-02-24T18:34:36;12.93;;;2.53;;
45041;SDS011;30779;52.096;4.410;2023-02-24T18:37:37;12.77;;;3.72;;
45041;SDS011;30779;52.096;4.410;2023-02-24T18:40:38;11.05;;;3.08;;
45041;SDS011;30779;52.096;4.410;2023-02-24T18:43:39;12.77;;;2.78;;
45041;SDS011;30779;52.096;4.410;2023-02-24T18:46:41;12.55;;;3.88;;
45041;SDS011;30779;52.096;4.410;2023-02-24T18:49:42;13.70;;;3.50;;
45041;SDS011;30779;52.096;4.410;2023-02-24T18:52:43;17.63;;;3.47;;
45041;SDS011;30779;52.096;4.410;2023-02-24T18:55:44;15.02;;;3.00;;
45041;SDS011;30779;52.096;4.410;2023-02-24T18:58:45;14.60;;;2.50;;
45041;SDS011;30779;52.096;4.410;2023-02-24T19:01:46;14.02;;;2.75;;
45041;SDS011;30779;52.096;4.410;2023-02-24T19:04:49;8.53;;;2.63;;
45041;SDS011;30779;52.096;4.410;2023-02-24T19:07:52;13.17;;;2.97;;
45041;SDS011;30779;52.096;4.410;2023-02-24T19:10:53;12.10;;;2.42;;
45041;SDS011;30779;52.096;4.410;2023-02-24T19:13:54;11.57;;;2.95;;
45041;SDS011;30779;52.096;4.410;2023-02-24T19:16:55;9.05;;;2.83;;
45041;SDS011;30779;52.096;4.410;2023-02-24T19:19:56;16.00;;;3.08;;
45041;SDS011;30779;52.096;4.410;2023-02-24T19:22:57;8.57;;;2.40;;
45041;SDS011;30779;52.096;4.410;2023-02-24T19:26:00;7.85;;;2.13;;
45041;SDS011;30779;52.096;4.410;2023-02-24T19:29:01;10.10;;;2.05;;
45041;SDS011;30779;52.096;4.410;2023-02-24T19:32:03;9.05;;;2.38;;
45041;SDS011;30779;52.096;4.410;2023-02-24T19:35:04;11.60;;;2.75;;
45041;SDS011;30779;52.096;4.410;2023-02-24T19:38:05;12.77;;;2.47;;
45041;SDS011;30779;52.096;4.410;2023-02-24T19:41:07;20.85;;;5.40;;
45041;SDS011;30779;52.096;4.410;2023-02-24T19:44:09;9.55;;;2.35;;
45041;SDS011;30779;52.096;4.410;2023-02-24T19:47:10;11.18;;;3.72;;
45041;SDS011;30779;52.096;4.410;2023-02-24T19:50:12;18.05;;;4.68;;
45041;SDS011;30779;52.096;4.410;2023-02-24T19:53:13;16.33;;;3.30;;
45041;SDS011;30779;52.096;4.410;2023-02-24T19:56:14;13.65;;;4.05;;
45041;SDS011;30779;52.096;4.410;2023-02-24T19:59:16;15.50;;;4.00;;
45041;SDS011;30779;52.096;4.410;2023-02-24T20:02:17;13.73;;;2.63;;
45041;SDS011;30779;52.096;4.410;2023-02-24T20:05:18;14.57;;;4.25;;
45041;SDS011;30779;52.096;4.410;2023-02-24T20:08:19;14.23;;;3.05;;
45041;SDS011;30779;52.096;4.410;2023-02-24T20:11:20;14.88;;;3.75;;
45041;SDS011;30779;52.096;4.410;2023-02-24T20:14:25;7.93;;;2.25;;
45041;SDS011;30779;52.096;4.410;2023-02-24T20:17:26;10.98;;;2.90;;
45041;SDS011;30779;52.096;4.410;2023-02-24T20:20:27;11.52;;;2.63;;
45041;SDS011;30779;52.096;4.410;2023-02-24T20:23:29;11.20;;;4.13;;
45041;SDS011;30779;52.096;4.410;2023-02-24T20:26:34;13.57;;;3.50;;
45041;SDS011;30779;52.096;4.410;2023-02-24T20:29:35;10.73;;;3.53;;